sensor_id;sensor_type;location;lat;lon;timestamp;pressure;altitude;pressure_sealevel;temperature;humidity
56713;BME280;42589;45.536;9.032;2023-04-10T00:01:02;100285.41;;;17.77;35.70
56713;BME280;42589;45.536;9.032;2023-04-10T00:04:04;100291.94;;;18.62;34.15
56713;BME280;42589;45.536;9.032;2023-04-10T00:07:05;100284.88;;;18.40;34.54
56713;BME280;42589;45.536;9.032;2023-04-10T00:10:06;100278.66;;;18.18;34.69
56713;BME280;42589;45.536;9.032;2023-04-10T00:13:07;100284.72;;;18.05;34.73
56713;BME280;42589;45.536;9.032;2023-04-10T00:16:07;100280.97;;;18.85;33.56
56713;BME280;42589;45.536;9.032;2023-04-10T00:19:08;100274.88;;;18.33;34.18
56713;BME280;42589;45.536;9.032;2023-04-10T00:22:09;100284.66;;;18.77;33.46
56713;BME280;42589;45.536;9.032;2023-04-10T00:25:10;100283.72;;;18.27;34.54
56713;BME280;42589;45.536;9.032;2023-04-10T00:28:10;100278.22;;;18.57;33.58
56713;BME280;42589;45.536;9.032;2023-04-10T00:31:11;100279.56;;;18.25;34.17
56713;BME280;42589;45.536;9.032;2023-04-10T00:34:11;100281.09;;;17.98;34.51
56713;BME280;42589;45.536;9.032;2023-04-10T00:37:13;100289.94;;;18.49;33.62
56713;BME280;42589;45.536;9.032;2023-04-10T00:40:14;100297.53;;;17.73;34.45
56713;BME280;42589;45.536;9.032;2023-04-10T00:43:16;100294.75;;;17.96;34.41
56713;BME280;42589;45.536;9.032;2023-04-10T00:46:18;100292.94;;;18.18;34.01
56713;BME280;42589;45.536;9.032;2023-04-10T00:49:19;100315.56;;;18.82;33.71
56713;BME280;42589;45.536;9.032;2023-04-10T00:52:21;100304.25;;;18.50;33.61
56713;BME280;42589;45.536;9.032;2023-04-10T00:55:22;100310.28;;;18.73;33.55
56713;BME280;42589;45.536;9.032;2023-04-10T00:58:23;100294.25;;;18.65;33.13
56713;BME280;42589;45.536;9.032;2023-04-10T01:01:23;100309.03;;;19.19;32.53
56713;BME280;42589;45.536;9.032;2023-04-10T01:04:25;100303.78;;;19.11;32.42
56713;BME280;42589;45.536;9.032;2023-04-10T01:10:47;100312.56;;;19.19;32.29
56713;BME280;42589;45.536;9.032;2023-04-10T01:14:10;100296.16;;;19.21;31.95
56713;BME280;42589;45.536;9.032;2023-04-10T01:17:21;100308.34;;;18.89;32.38
56713;BME280;42589;45.536;9.032;2023-04-10T01:20:32;100305.00;;;18.87;32.43
56713;BME280;42589;45.536;9.032;2023-04-10T01:24:04;100310.66;;;19.48;31.54
56713;BME280;42589;45.536;9.032;2023-04-10T01:30:26;100297.97;;;18.43;32.63
56713;BME280;42589;45.536;9.032;2023-04-10T01:33:35;100299.69;;;18.50;32.58
56713;BME280;42589;45.536;9.032;2023-04-10T01:37:08;100308.63;;;19.22;31.54
56713;BME280;42589;45.536;9.032;2023-04-10T01:40:14;100289.94;;;18.49;31.91
56713;BME280;42589;45.536;9.032;2023-04-10T01:43:16;100316.13;;;19.61;31.13
56713;BME280;42589;45.536;9.032;2023-04-10T01:46:20;100315.47;;;19.24;31.39
56713;BME280;42589;45.536;9.032;2023-04-10T01:49:24;100303.16;;;19.15;31.54
56713;BME280;42589;45.536;9.032;2023-04-10T01:52:26;100321.69;;;19.25;31.21
56713;BME280;42589;45.536;9.032;2023-04-10T01:55:29;100312.59;;;18.76;31.75
56713;BME280;42589;45.536;9.032;2023-04-10T01:58:30;100310.34;;;18.80;31.64
56713;BME280;42589;45.536;9.032;2023-04-10T02:01:31;100289.88;;;18.86;31.25
56713;BME280;42589;45.536;9.032;2023-04-10T02:04:32;100305.25;;;18.70;32.07
56713;BME280;42589;45.536;9.032;2023-04-10T02:11:20;100306.88;;;18.86;31.94
56713;BME280;42589;45.536;9.032;2023-04-10T02:14:26;100309.47;;;18.73;32.12
56713;BME280;42589;45.536;9.032;2023-04-10T02:17:30;100301.09;;;18.46;31.91
56713;BME280;42589;45.536;9.032;2023-04-10T02:20:34;100297.25;;;18.34;32.19
56713;BME280;42589;45.536;9.032;2023-04-10T02:23:41;100296.66;;;18.39;32.10
56713;BME280;42589;45.536;9.032;2023-04-10T02:26:43;100289.88;;;18.64;31.87
56713;BME280;42589;45.536;9.032;2023-04-10T02:29:44;100298.91;;;18.35;32.26
56713;BME280;42589;45.536;9.032;2023-04-10T02:32:45;100292.13;;;18.03;32.72
56713;BME280;42589;45.536;9.032;2023-04-10T02:35:51;100304.94;;;18.37;32.12
56713;BME280;42589;45.536;9.032;2023-04-10T02:38:53;100311.81;;;18.40;32.00
56713;BME280;42589;45.536;9.032;2023-04-10T02:41:54;100319.81;;;18.54;31.88
56713;BME280;42589;45.536;9.032;2023-04-10T02:44:56;100282.69;;;18.93;31.48
56713;BME280;42589;45.536;9.032;2023-04-10T02:47:57;100317.84;;;19.06;31.26
56713;BME280;42589;45.536;9.032;2023-04-10T02:50:58;100299.19;;;18.62;31.96
56713;BME280;42589;45.536;9.032;2023-04-10T02:53:59;100324.25;;;18.84;31.76
56713;BME280;42589;45.536;9.032;2023-04-10T02:57:00;100316.09;;;18.98;31.32
56713;BME280;42589;45.536;9.032;2023-04-10T03:00:02;100322.88;;;18.88;31.40
56713;BME280;42589;45.536;9.032;2023-04-10T03:03:03;100323.41;;;18.83;31.71
56713;BME280;42589;45.536;9.032;2023-04-10T03:06:06;100321.88;;;18.95;31.18
56713;BME280;42589;45.536;9.032;2023-04-10T03:09:09;100313.84;;;18.38;31.80
56713;BME280;42589;45.536;9.032;2023-04-10T03:12:09;100322.19;;;19.07;31.16
56713;BME280;42589;45.536;9.032;2023-04-10T03:15:10;100304.69;;;18.53;31.71
56713;BME280;42589;45.536;9.032;2023-04-10T03:18:11;100310.06;;;17.81;33.06
56713;BME280;42589;45.536;9.032;2023-04-10T03:21:12;100308.66;;;17.85;33.52
56713;BME280;42589;45.536;9.032;2023-04-10T03:24:12;100315.53;;;18.60;32.68
56713;BME280;42589;45.536;9.032;2023-04-10T03:27:13;100316.81;;;18.43;33.05
56713;BME280;42589;45.536;9.032;2023-04-10T03:30:14;100312.09;;;17.79;33.98
56713;BME280;42589;45.536;9.032;2023-04-10T03:33:15;100318.59;;;17.84;33.87
56713;BME280;42589;45.536;9.032;2023-04-10T03:36:16;100318.44;;;18.07;33.63
56713;BME280;42589;45.536;9.032;2023-04-10T03:39:16;100328.97;;;18.02;33.51
56713;BME280;42589;45.536;9.032;2023-04-10T03:42:17;100325.38;;;17.80;33.77
56713;BME280;42589;45.536;9.032;2023-04-10T03:45:18;100327.25;;;18.16;33.39
56713;BME280;42589;45.536;9.032;2023-04-10T03:48:19;100322.53;;;18.03;33.61
56713;BME280;42589;45.536;9.032;2023-04-10T03:51:19;100326.28;;;18.02;33.60
56713;BME280;42589;45.536;9.032;2023-04-10T03:54:20;100326.38;;;17.94;33.78
56713;BME280;42589;45.536;9.032;2023-04-10T03:57:21;100326.56;;;17.93;33.19
56713;BME280;42589;45.536;9.032;2023-04-10T04:00:23;100334.66;;;18.29;33.31
56713;BME280;42589;45.536;9.032;2023-04-10T04:03:24;100340.59;;;18.24;33.05
56713;BME280;42589;45.536;9.032;2023-04-10T04:06:25;100341.72;;;18.30;33.37
56713;BME280;42589;45.536;9.032;2023-04-10T04:09:26;100345.69;;;17.83;33.76
56713;BME280;42589;45.536;9.032;2023-04-10T04:12:27;100347.91;;;17.79;34.21
56713;BME280;42589;45.536;9.032;2023-04-10T04:15:28;100355.38;;;18.14;33.40
56713;BME280;42589;45.536;9.032;2023-04-10T04:18:29;100349.00;;;18.00;33.97
56713;BME280;42589;45.536;9.032;2023-04-10T04:21:30;100347.59;;;18.04;33.89
56713;BME280;42589;45.536;9.032;2023-04-10T04:24:31;100357.16;;;17.92;34.19
56713;BME280;42589;45.536;9.032;2023-04-10T04:27:34;100363.84;;;17.96;34.11
56713;BME280;42589;45.536;9.032;2023-04-10T04:30:35;100351.31;;;17.73;34.45
56713;BME280;42589;45.536;9.032;2023-04-10T04:33:37;100350.56;;;17.94;34.20
56713;BME280;42589;45.536;9.032;2023-04-10T04:36:38;100342.41;;;17.88;34.20
56713;BME280;42589;45.536;9.032;2023-04-10T04:39:39;100352.81;;;17.91;34.18
56713;BME280;42589;45.536;9.032;2023-04-10T04:42:39;100355.31;;;17.77;34.70
56713;BME280;42589;45.536;9.032;2023-04-10T04:45:41;100346.69;;;17.82;34.32
56713;BME280;42589;45.536;9.032;2023-04-10T04:48:41;100358.06;;;17.54;34.52
56713;BME280;42589;45.536;9.032;2023-04-10T04:51:46;100359.06;;;17.53;35.01
56713;BME280;42589;45.536;9.032;2023-04-10T04:54:47;100339.13;;;17.62;34.41
56713;BME280;42589;45.536;9.032;2023-04-10T04:57:49;100349.38;;;17.82;34.26
56713;BME280;42589;45.536;9.032;2023-04-10T05:00:51;100338.78;;;17.66;34.41
56713;BME280;42589;45.536;9.032;2023-04-10T05:03:51;100354.00;;;17.73;34.51
56713;BME280;42589;45.536;9.032;2023-04-10T05:06:52;100359.16;;;17.60;34.72
56713;BME280;42589;45.536;9.032;2023-04-10T05:09:53;100333.59;;;17.64;34.34
56713;BME280;42589;45.536;9.032;2023-04-10T05:12:54;100353.78;;;17.75;34.38
56713;BME280;42589;45.536;9.032;2023-04-10T05:15:55;100353.53;;;17.55;34.84
56713;BME280;42589;45.536;9.032;2023-04-10T05:18:55;100341.50;;;17.80;34.09
56713;BME280;42589;45.536;9.032;2023-04-10T05:21:56;100357.88;;;17.85;34.14
56713;BME280;42589;45.536;9.032;2023-04-10T05:24:58;100358.13;;;17.76;34.63
56713;BME280;42589;45.536;9.032;2023-04-10T05:27:59;100359.13;;;17.83;34.33
56713;BME280;42589;45.536;9.032;2023-04-10T05:31:00;100353.13;;;17.73;34.51
56713;BME280;42589;45.536;9.032;2023-04-10T05:34:00;100346.41;;;17.77;34.32
56713;BME280;42589;45.536;9.032;2023-04-10T05:37:01;100371.25;;;17.79;34.50
56713;BME280;42589;45.536;9.032;2023-04-10T05:40:02;100376.25;;;17.82;34.02
56713;BME280;42589;45.536;9.032;2023-04-10T05:43:03;100370.63;;;17.77;34.36
56713;BME280;42589;45.536;9.032;2023-04-10T05:46:04;100378.56;;;18.15;33.49
56713;BME280;42589;45.536;9.032;2023-04-10T05:49:05;100393.41;;;18.25;33.51
56713;BME280;42589;45.536;9.032;2023-04-10T05:52:06;100401.16;;;18.35;33.76
56713;BME280;42589;45.536;9.032;2023-04-10T05:55:09;100402.16;;;18.49;33.31
56713;BME280;42589;45.536;9.032;2023-04-10T05:58:09;100417.00;;;18.60;33.05
56713;BME280;42589;45.536;9.032;2023-04-10T06:01:10;100414.16;;;18.31;33.56
56713;BME280;42589;45.536;9.032;2023-04-10T06:04:12;100417.16;;;18.22;33.45
56713;BME280;42589;45.536;9.032;2023-04-10T06:07:12;100412.59;;;18.22;33.45
56713;BME280;42589;45.536;9.032;2023-04-10T06:10:13;100425.72;;;18.62;33.00
56713;BME280;42589;45.536;9.032;2023-04-10T06:13:14;100426.88;;;18.89;32.99
56713;BME280;42589;45.536;9.032;2023-04-10T06:16:15;100429.38;;;18.90;32.69
56713;BME280;42589;45.536;9.032;2023-04-10T06:19:16;100430.59;;;18.88;33.26
56713;BME280;42589;45.536;9.032;2023-04-10T06:22:17;100423.53;;;18.87;32.88
56713;BME280;42589;45.536;9.032;2023-04-10T06:25:18;100435.13;;;18.51;33.47
56713;BME280;42589;45.536;9.032;2023-04-10T06:28:19;100426.13;;;18.44;33.51
56713;BME280;42589;45.536;9.032;2023-04-10T06:31:20;100439.09;;;19.06;33.12
56713;BME280;42589;45.536;9.032;2023-04-10T06:34:24;100436.28;;;19.42;32.78
56713;BME280;42589;45.536;9.032;2023-04-10T06:37:29;100439.75;;;18.93;33.02
56713;BME280;42589;45.536;9.032;2023-04-10T06:40:34;100436.56;;;18.02;34.05
56713;BME280;42589;45.536;9.032;2023-04-10T06:43:35;100436.50;;;18.62;33.25
56713;BME280;42589;45.536;9.032;2023-04-10T06:46:35;100432.72;;;18.92;33.08
56713;BME280;42589;45.536;9.032;2023-04-10T06:49:36;100445.38;;;19.35;31.99
56713;BME280;42589;45.536;9.032;2023-04-10T06:52:38;100450.63;;;19.00;32.67
56713;BME280;42589;45.536;9.032;2023-04-10T06:55:39;100446.97;;;19.29;31.97
56713;BME280;42589;45.536;9.032;2023-04-10T06:58:40;100440.72;;;20.06;31.35
56713;BME280;42589;45.536;9.032;2023-04-10T07:01:40;100442.34;;;19.73;31.06
56713;BME280;42589;45.536;9.032;2023-04-10T07:04:41;100439.34;;;19.82;31.15
56713;BME280;42589;45.536;9.032;2023-04-10T07:07:42;100440.59;;;19.37;31.78
56713;BME280;42589;45.536;9.032;2023-04-10T07:10:44;100448.03;;;18.92;31.96
56713;BME280;42589;45.536;9.032;2023-04-10T07:13:45;100434.06;;;19.74;30.65
56713;BME280;42589;45.536;9.032;2023-04-10T07:16:47;100433.13;;;19.60;30.16
56713;BME280;42589;45.536;9.032;2023-04-10T07:19:48;100444.22;;;19.22;30.45
56713;BME280;42589;45.536;9.032;2023-04-10T07:22:50;100448.09;;;19.91;29.22
56713;BME280;42589;45.536;9.032;2023-04-10T07:25:50;100448.44;;;19.10;29.99
56713;BME280;42589;45.536;9.032;2023-04-10T07:28:51;100448.09;;;20.74;28.43
56713;BME280;42589;45.536;9.032;2023-04-10T07:31:53;100439.16;;;18.76;30.72
56713;BME280;42589;45.536;9.032;2023-04-10T07:34:54;100438.28;;;19.83;30.20
56713;BME280;42589;45.536;9.032;2023-04-10T07:37:55;100438.81;;;19.72;29.48
56713;BME280;42589;45.536;9.032;2023-04-10T07:40:56;100443.50;;;19.14;29.19
56713;BME280;42589;45.536;9.032;2023-04-10T07:43:58;100449.56;;;19.65;28.96
56713;BME280;42589;45.536;9.032;2023-04-10T07:46:58;100449.66;;;19.79;27.90
56713;BME280;42589;45.536;9.032;2023-04-10T07:49:59;100458.72;;;20.34;27.47
56713;BME280;42589;45.536;9.032;2023-04-10T07:53:01;100468.16;;;19.82;27.96
56713;BME280;42589;45.536;9.032;2023-04-10T07:56:03;100458.41;;;20.15;27.75
56713;BME280;42589;45.536;9.032;2023-04-10T07:59:04;100457.22;;;20.25;27.56
56713;BME280;42589;45.536;9.032;2023-04-10T08:02:05;100456.03;;;20.34;27.35
56713;BME280;42589;45.536;9.032;2023-04-10T08:05:09;100459.19;;;20.44;27.50
56713;BME280;42589;45.536;9.032;2023-04-10T08:08:09;100450.56;;;20.21;27.58
56713;BME280;42589;45.536;9.032;2023-04-10T08:11:28;100462.47;;;20.81;27.32
56713;BME280;42589;45.536;9.032;2023-04-10T08:14:29;100455.38;;;20.73;27.42
56713;BME280;42589;45.536;9.032;2023-04-10T08:17:30;100456.03;;;20.34;27.28
56713;BME280;42589;45.536;9.032;2023-04-10T08:20:31;100462.97;;;20.15;27.40
56713;BME280;42589;45.536;9.032;2023-04-10T08:23:35;100459.97;;;19.68;27.99
56713;BME280;42589;45.536;9.032;2023-04-10T08:26:36;100465.34;;;19.68;28.71
56713;BME280;42589;45.536;9.032;2023-04-10T08:29:38;100470.31;;;20.62;27.27
56713;BME280;42589;45.536;9.032;2023-04-10T08:32:40;100460.50;;;21.29;26.76
56713;BME280;42589;45.536;9.032;2023-04-10T08:35:40;100460.91;;;21.33;26.21
56713;BME280;42589;45.536;9.032;2023-04-10T08:38:41;100466.31;;;21.33;26.22
56713;BME280;42589;45.536;9.032;2023-04-10T08:41:42;100470.09;;;20.64;26.48
56713;BME280;42589;45.536;9.032;2023-04-10T08:44:43;100468.81;;;20.53;26.10
56713;BME280;42589;45.536;9.032;2023-04-10T08:47:49;100466.56;;;20.63;26.79
56713;BME280;42589;45.536;9.032;2023-04-10T08:50:51;100461.19;;;20.29;26.77
56713;BME280;42589;45.536;9.032;2023-04-10T08:53:59;100463.28;;;20.68;26.15
56713;BME280;42589;45.536;9.032;2023-04-10T08:57:06;100472.72;;;20.51;26.88
56713;BME280;42589;45.536;9.032;2023-04-10T09:00:08;100471.91;;;21.12;26.50
56713;BME280;42589;45.536;9.032;2023-04-10T09:03:09;100462.00;;;21.52;25.69
56713;BME280;42589;45.536;9.032;2023-04-10T09:06:19;100463.09;;;20.90;25.91
56713;BME280;42589;45.536;9.032;2023-04-10T09:09:20;100466.84;;;20.40;26.49
56713;BME280;42589;45.536;9.032;2023-04-10T09:12:21;100475.00;;;21.15;25.66
56713;BME280;42589;45.536;9.032;2023-04-10T09:15:23;100470.75;;;21.54;24.83
56713;BME280;42589;45.536;9.032;2023-04-10T09:18:43;100450.06;;;22.13;23.85
56713;BME280;42589;45.536;9.032;2023-04-10T09:21:49;100466.50;;;22.24;24.50
56713;BME280;42589;45.536;9.032;2023-04-10T09:24:49;100454.50;;;21.54;24.76
56713;BME280;42589;45.536;9.032;2023-04-10T09:27:59;100459.03;;;22.27;24.25
56713;BME280;42589;45.536;9.032;2023-04-10T09:31:00;100456.72;;;22.30;23.61
56713;BME280;42589;45.536;9.032;2023-04-10T09:34:16;100459.88;;;21.34;25.10
56713;BME280;42589;45.536;9.032;2023-04-10T09:37:17;100447.63;;;21.65;25.06
56713;BME280;42589;45.536;9.032;2023-04-10T09:40:22;100439.84;;;22.21;29.25
56713;BME280;42589;45.536;9.032;2023-04-10T09:43:25;100436.03;;;22.42;25.44
56713;BME280;42589;45.536;9.032;2023-04-10T09:46:26;100453.19;;;22.03;25.29
56713;BME280;42589;45.536;9.032;2023-04-10T09:49:27;100444.91;;;21.98;25.48
56713;BME280;42589;45.536;9.032;2023-04-10T09:52:34;100448.69;;;21.50;25.41
56713;BME280;42589;45.536;9.032;2023-04-10T09:55:37;100446.19;;;21.36;26.19
56713;BME280;42589;45.536;9.032;2023-04-10T09:58:38;100440.34;;;21.39;26.01
56713;BME280;42589;45.536;9.032;2023-04-10T10:01:42;100439.06;;;21.88;26.12
56713;BME280;42589;45.536;9.032;2023-04-10T10:04:45;100436.53;;;22.19;25.61
56713;BME280;42589;45.536;9.032;2023-04-10T10:07:48;100434.31;;;21.56;25.96
56713;BME280;42589;45.536;9.032;2023-04-10T10:10:55;100425.56;;;22.53;25.59
56713;BME280;42589;45.536;9.032;2023-04-10T10:13:59;100425.22;;;22.81;25.08
56713;BME280;42589;45.536;9.032;2023-04-10T10:17:04;100412.16;;;22.71;25.31
56713;BME280;42589;45.536;9.032;2023-04-10T10:20:12;100403.63;;;23.06;24.38
56713;BME280;42589;45.536;9.032;2023-04-10T10:23:14;100415.75;;;22.52;25.78
56713;BME280;42589;45.536;9.032;2023-04-10T10:26:16;100419.28;;;23.04;24.50
56713;BME280;42589;45.536;9.032;2023-04-10T10:29:19;100414.91;;;23.53;23.98
56713;BME280;42589;45.536;9.032;2023-04-10T10:32:22;100411.75;;;23.06;24.39
56713;BME280;42589;45.536;9.032;2023-04-10T10:35:25;100413.63;;;23.05;23.89
56713;BME280;42589;45.536;9.032;2023-04-10T10:38:26;100412.09;;;23.41;23.59
56713;BME280;42589;45.536;9.032;2023-04-10T10:41:37;100405.72;;;23.29;24.61
56713;BME280;42589;45.536;9.032;2023-04-10T10:44:51;100422.00;;;23.54;23.69
56713;BME280;42589;45.536;9.032;2023-04-10T10:47:55;100402.56;;;23.07;24.51
56713;BME280;42589;45.536;9.032;2023-04-10T10:50:58;100411.00;;;21.62;25.95
56713;BME280;42589;45.536;9.032;2023-04-10T10:53:59;100399.94;;;22.93;24.49
56713;BME280;42589;45.536;9.032;2023-04-10T10:57:01;100401.13;;;23.04;24.63
56713;BME280;42589;45.536;9.032;2023-04-10T11:00:02;100394.44;;;23.82;23.82
56713;BME280;42589;45.536;9.032;2023-04-10T11:06:08;100351.97;;;22.62;24.60
56713;BME280;42589;45.536;9.032;2023-04-10T11:15:59;100381.81;;;23.62;23.80
56713;BME280;42589;45.536;9.032;2023-04-10T11:22:06;100354.81;;;23.93;23.85
56713;BME280;42589;45.536;9.032;2023-04-10T11:25:07;100365.50;;;24.73;23.39
56713;BME280;42589;45.536;9.032;2023-04-10T11:28:09;100351.69;;;24.86;23.19
56713;BME280;42589;45.536;9.032;2023-04-10T11:31:20;100327.91;;;23.73;23.81
56713;BME280;42589;45.536;9.032;2023-04-10T11:34:21;100342.88;;;24.30;22.85
56713;BME280;42589;45.536;9.032;2023-04-10T11:37:22;100342.16;;;22.93;23.97
56713;BME280;42589;45.536;9.032;2023-04-10T11:40:23;100331.09;;;24.67;22.24
56713;BME280;42589;45.536;9.032;2023-04-10T11:43:26;100340.84;;;23.27;23.85
56713;BME280;42589;45.536;9.032;2023-04-10T11:46:28;100344.06;;;25.07;22.22
56713;BME280;42589;45.536;9.032;2023-04-10T11:49:30;100330.91;;;24.92;22.23
56713;BME280;42589;45.536;9.032;2023-04-10T11:52:32;100335.81;;;25.37;21.66
56713;BME280;42589;45.536;9.032;2023-04-10T11:55:37;100314.88;;;24.60;23.69
56713;BME280;42589;45.536;9.032;2023-04-10T11:58:41;100308.00;;;25.46;22.79
56713;BME280;42589;45.536;9.032;2023-04-10T12:01:42;100308.63;;;25.37;22.65
56713;BME280;42589;45.536;9.032;2023-04-10T12:04:45;100315.25;;;25.29;21.34
56713;BME280;42589;45.536;9.032;2023-04-10T12:07:47;100313.91;;;24.43;22.51
56713;BME280;42589;45.536;9.032;2023-04-10T12:10:48;100313.16;;;23.62;22.96
56713;BME280;42589;45.536;9.032;2023-04-10T12:13:53;100308.13;;;24.32;23.37
56713;BME280;42589;45.536;9.032;2023-04-10T12:16:55;100297.63;;;25.32;23.49
56713;BME280;42589;45.536;9.032;2023-04-10T12:19:55;100305.00;;;24.89;22.88
56713;BME280;42589;45.536;9.032;2023-04-10T12:22:56;100311.56;;;25.59;21.85
56713;BME280;42589;45.536;9.032;2023-04-10T12:26:07;100308.72;;;25.30;21.93
56713;BME280;42589;45.536;9.032;2023-04-10T12:29:08;100298.41;;;25.79;22.02
56713;BME280;42589;45.536;9.032;2023-04-10T12:32:10;100284.63;;;25.22;22.80
56713;BME280;42589;45.536;9.032;2023-04-10T12:35:10;100298.34;;;26.31;21.71
56713;BME280;42589;45.536;9.032;2023-04-10T12:38:11;100291.81;;;26.32;21.54
56713;BME280;42589;45.536;9.032;2023-04-10T12:41:12;100283.69;;;25.80;22.23
56713;BME280;42589;45.536;9.032;2023-04-10T12:44:13;100282.06;;;25.67;23.10
56713;BME280;42589;45.536;9.032;2023-04-10T12:47:14;100273.34;;;24.95;22.90
56713;BME280;42589;45.536;9.032;2023-04-10T12:50:15;100277.31;;;25.86;22.77
56713;BME280;42589;45.536;9.032;2023-04-10T12:53:16;100281.56;;;26.51;21.16
56713;BME280;42589;45.536;9.032;2023-04-10T12:56:18;100275.34;;;26.39;22.33
56713;BME280;42589;45.536;9.032;2023-04-10T12:59:20;100270.91;;;26.21;21.17
56713;BME280;42589;45.536;9.032;2023-04-10T13:02:20;100276.31;;;25.52;21.43
56713;BME280;42589;45.536;9.032;2023-04-10T13:05:20;100273.50;;;26.28;22.01
56713;BME280;42589;45.536;9.032;2023-04-10T13:08:21;100270.66;;;25.94;22.98
56713;BME280;42589;45.536;9.032;2023-04-10T13:11:22;100252.94;;;25.68;21.24
56713;BME280;42589;45.536;9.032;2023-04-10T13:14:23;100260.56;;;24.72;22.51
56713;BME280;42589;45.536;9.032;2023-04-10T13:17:24;100244.91;;;24.14;23.65
56713;BME280;42589;45.536;9.032;2023-04-10T13:20:26;100249.16;;;23.91;23.49
56713;BME280;42589;45.536;9.032;2023-04-10T13:23:27;100239.50;;;23.03;24.17
56713;BME280;42589;45.536;9.032;2023-04-10T13:26:28;100245.91;;;22.27;25.06
56713;BME280;42589;45.536;9.032;2023-04-10T13:29:29;100236.97;;;22.77;25.04
56713;BME280;42589;45.536;9.032;2023-04-10T13:32:30;100244.06;;;23.83;24.13
56713;BME280;42589;45.536;9.032;2023-04-10T13:35:31;100238.25;;;23.43;24.17
56713;BME280;42589;45.536;9.032;2023-04-10T13:38:31;100213.69;;;23.74;24.16
56713;BME280;42589;45.536;9.032;2023-04-10T13:41:33;100206.13;;;24.37;22.77
56713;BME280;42589;45.536;9.032;2023-04-10T13:44:34;100205.97;;;23.53;23.96
56713;BME280;42589;45.536;9.032;2023-04-10T13:47:34;100217.09;;;24.00;23.02
56713;BME280;42589;45.536;9.032;2023-04-10T13:50:35;100200.25;;;24.51;23.02
56713;BME280;42589;45.536;9.032;2023-04-10T13:53:35;100200.28;;;26.03;22.34
56713;BME280;42589;45.536;9.032;2023-04-10T13:56:36;100192.06;;;25.45;22.16
56713;BME280;42589;45.536;9.032;2023-04-10T13:59:37;100205.22;;;26.34;21.49
56713;BME280;42589;45.536;9.032;2023-04-10T14:02:38;100195.19;;;25.37;22.25
56713;BME280;42589;45.536;9.032;2023-04-10T14:05:40;100190.22;;;24.52;23.03
56713;BME280;42589;45.536;9.032;2023-04-10T14:08:40;100192.31;;;25.84;22.41
56713;BME280;42589;45.536;9.032;2023-04-10T14:11:41;100188.13;;;26.73;21.67
56713;BME280;42589;45.536;9.032;2023-04-10T14:14:43;100191.50;;;25.84;21.80
56713;BME280;42589;45.536;9.032;2023-04-10T14:17:44;100196.63;;;26.76;21.70
56713;BME280;42589;45.536;9.032;2023-04-10T14:20:45;100197.72;;;25.96;21.55
56713;BME280;42589;45.536;9.032;2023-04-10T14:23:47;100188.06;;;27.45;20.79
56713;BME280;42589;45.536;9.032;2023-04-10T14:26:47;100186.16;;;27.68;20.02
56713;BME280;42589;45.536;9.032;2023-04-10T14:29:48;100174.69;;;27.66;20.24
56713;BME280;42589;45.536;9.032;2023-04-10T14:32:50;100173.63;;;27.94;20.13
56713;BME280;42589;45.536;9.032;2023-04-10T14:35:52;100171.16;;;27.70;19.83
56713;BME280;42589;45.536;9.032;2023-04-10T14:38:52;100162.13;;;27.04;20.74
56713;BME280;42589;45.536;9.032;2023-04-10T14:41:53;100169.28;;;27.49;20.45
56713;BME280;42589;45.536;9.032;2023-04-10T14:44:53;100166.75;;;27.20;20.46
56713;BME280;42589;45.536;9.032;2023-04-10T14:47:55;100156.28;;;27.34;20.41
56713;BME280;42589;45.536;9.032;2023-04-10T14:50:56;100167.41;;;27.11;20.28
56713;BME280;42589;45.536;9.032;2023-04-10T14:53:58;100163.25;;;27.47;20.19
56713;BME280;42589;45.536;9.032;2023-04-10T14:56:59;100157.50;;;27.21;20.46
56713;BME280;42589;45.536;9.032;2023-04-10T15:00:02;100149.09;;;25.88;21.39
56713;BME280;42589;45.536;9.032;2023-04-10T15:03:03;100151.88;;;25.64;21.75
56713;BME280;42589;45.536;9.032;2023-04-10T15:06:05;100156.59;;;26.99;21.31
56713;BME280;42589;45.536;9.032;2023-04-10T15:09:06;100156.59;;;26.77;20.90
56713;BME280;42589;45.536;9.032;2023-04-10T15:12:06;100149.50;;;26.59;20.79
56713;BME280;42589;45.536;9.032;2023-04-10T15:15:08;100157.59;;;26.71;21.00
56713;BME280;42589;45.536;9.032;2023-04-10T15:18:08;100155.91;;;26.36;22.29
56713;BME280;42589;45.536;9.032;2023-04-10T15:21:09;100150.72;;;26.17;21.04
56713;BME280;42589;45.536;9.032;2023-04-10T15:24:09;100151.31;;;25.22;22.79
56713;BME280;42589;45.536;9.032;2023-04-10T15:27:10;100152.28;;;26.81;20.89
56713;BME280;42589;45.536;9.032;2023-04-10T15:30:11;100136.50;;;26.66;21.33
56713;BME280;42589;45.536;9.032;2023-04-10T15:33:12;100142.63;;;26.56;20.71
56713;BME280;42589;45.536;9.032;2023-04-10T15:36:12;100139.81;;;27.07;20.68
56713;BME280;42589;45.536;9.032;2023-04-10T15:39:13;100138.78;;;27.13;21.25
56713;BME280;42589;45.536;9.032;2023-04-10T15:42:14;100136.00;;;27.52;20.05
56713;BME280;42589;45.536;9.032;2023-04-10T15:45:15;100141.44;;;27.08;21.04
56713;BME280;42589;45.536;9.032;2023-04-10T15:48:17;100140.69;;;24.73;22.47
56713;BME280;42589;45.536;9.032;2023-04-10T15:51:17;100138.66;;;25.56;21.72
56713;BME280;42589;45.536;9.032;2023-04-10T15:54:18;100135.69;;;26.66;21.64
56713;BME280;42589;45.536;9.032;2023-04-10T15:57:19;100137.41;;;26.72;20.82
56713;BME280;42589;45.536;9.032;2023-04-10T16:00:19;100129.69;;;26.85;20.59
56713;BME280;42589;45.536;9.032;2023-04-10T16:03:20;100107.84;;;27.24;20.79
56713;BME280;42589;45.536;9.032;2023-04-10T16:06:20;100139.56;;;27.52;20.30
56713;BME280;42589;45.536;9.032;2023-04-10T16:09:25;100146.09;;;27.51;20.49
56713;BME280;42589;45.536;9.032;2023-04-10T16:12:25;100143.00;;;27.43;19.96
56713;BME280;42589;45.536;9.032;2023-04-10T16:15:26;100131.75;;;27.61;19.82